Kookyang Express — DSRC7 — position and weather

sailwx.info

Track history (hours):
 
Tides and Currents Weather Stations Pressure Air Temp Water Temp Dewpoint Dewpoint Depression Visibility Wind Speed Wind Dir Waves Ship Positions

Kookyang Express

Last reported at 2018-Apr-24 02:08 UTC. Time now 2018-Apr-24 05:08 UTC.
Position N 34°04' E 136°47'.

Length 111 m; draft 6.9 m.

Type: Cargo ship. MMSI: 440090000.

Date/timePositionNaut miles runAvg speedWind from/ knotsBaromVisibWave heightAir tempDewpointWater temp
2018-Apr-24 02:08N 34°04' E 136°47'210.7
2018-Apr-24 01:59N 34°03' E 136°46'2310.5
2018-Apr-23 23:49N 33°47' E 136°27'54 9.2
2018-Apr-23 17:58N 33°30' E 135°25'811.1
2018-Apr-23 17:18N 33°35' E 135°19'610.8
2018-Apr-23 16:42N 33°40' E 135°14'410.7
2018-Apr-23 16:16N 33°43' E 135°10'310.6
2018-Apr-23 16:00N 33°45' E 135°08'510.5
2018-Apr-23 15:30N 33°49' E 135°03'5 9.8
2018-Apr-23 15:00N 33°53' E 134°60'5 9.8
2018-Apr-23 14:30N 33°58' E 134°59'5 9.9
2018-Apr-23 14:00N 34°03' E 134°59'510.3
2018-Apr-23 13:30N 34°08' E 134°58'611.6
2018-Apr-23 13:00N 34°14' E 134°58'611.4
2018-Apr-23 12:30N 34°20' E 134°59'510.3
2018-Apr-23 12:00N 34°24' E 135°03'611.1
2018-Apr-23 11:30N 34°26' E 135°08'5 9.9
2018-Apr-23 11:00N 34°29' E 135°14'5 9.8
2018-Apr-23 10:30N 34°32' E 135°18'4 7.5
2018-Apr-23 10:01N 34°32' E 135°23'1 2.5
2018-Apr-23 09:29N 34°31' E 135°23'0 0.0
2018-Apr-23 08:59N 34°31' E 135°23'0 0.0
2018-Apr-23 08:29N 34°31' E 135°23'0 0.0
2018-Apr-23 07:59N 34°31' E 135°23'0 0.0
2018-Apr-23 07:29N 34°31' E 135°23'0 0.0
2018-Apr-23 06:59N 34°31' E 135°23'0 0.0
2018-Apr-23 06:29N 34°31' E 135°23'0 0.0
2018-Apr-23 05:59N 34°31' E 135°23'0 0.0
2018-Apr-23 05:29N 34°31' E 135°23'0 0.0
2018-Apr-23 04:59N 34°31' E 135°23'0 0.0
2018-Apr-23 04:29N 34°31' E 135°23'0 0.0
2018-Apr-23 03:56N 34°31' E 135°23'0 0.0
2018-Apr-23 03:29N 34°31' E 135°23'0 0.0
2018-Apr-23 02:59N 34°31' E 135°23'0 0.0
2018-Apr-23 02:29N 34°31' E 135°23'0 0.0
2018-Apr-23 01:59N 34°31' E 135°23'0 0.0
2018-Apr-23 01:29N 34°31' E 135°23'0 0.0
2018-Apr-23 00:59N 34°31' E 135°23'0 0.0
2018-Apr-23 00:29N 34°31' E 135°23'0 0.0
2018-Apr-22 23:59N 34°31' E 135°23'0 0.0
2018-Apr-22 23:29N 34°31' E 135°23'0 0.0
2018-Apr-22 22:59N 34°31' E 135°23'0 0.0
2018-Apr-22 22:29N 34°31' E 135°23'0 0.0
2018-Apr-22 21:59N 34°31' E 135°23'0 0.0
2018-Apr-22 21:29N 34°31' E 135°23'0 0.0
2018-Apr-22 20:59N 34°31' E 135°23'0 0.0
2018-Apr-22 20:29N 34°31' E 135°23'0 0.0
2018-Apr-22 19:59N 34°31' E 135°23'0 0.0
2018-Apr-22 19:29N 34°31' E 135°23'0 0.0
2018-Apr-22 18:59N 34°31' E 135°23'0 0.0
2018-Apr-22 18:29N 34°31' E 135°23'0 0.0
2018-Apr-22 17:59N 34°31' E 135°23'0 0.0
2018-Apr-22 17:29N 34°31' E 135°23'0 0.0
2018-Apr-22 16:59N 34°31' E 135°23'0 0.0
2018-Apr-22 16:29N 34°31' E 135°23'0 0.0
2018-Apr-22 15:59N 34°31' E 135°23'0 0.0
2018-Apr-22 15:29N 34°31' E 135°23'0 0.0
2018-Apr-22 14:59N 34°31' E 135°23'0 0.0
2018-Apr-22 14:29N 34°31' E 135°23'0 0.0
2018-Apr-22 13:59N 34°31' E 135°23'0 0.0
2018-Apr-22 13:29N 34°31' E 135°23'0 0.0
2018-Apr-22 12:59N 34°31' E 135°23'0 0.0
2018-Apr-22 12:29N 34°31' E 135°23'0 0.0
2018-Apr-22 11:59N 34°31' E 135°23'0 0.0
2018-Apr-22 11:29N 34°31' E 135°23'0 0.0
2018-Apr-22 10:59N 34°31' E 135°23'0 0.0
2018-Apr-22 10:29N 34°31' E 135°23'0 0.0
2018-Apr-22 09:59N 34°31' E 135°23'0 0.0
2018-Apr-22 09:29N 34°31' E 135°23'0 0.0
2018-Apr-22 08:59N 34°31' E 135°23'0 0.0
2018-Apr-22 08:29N 34°31' E 135°23'0 0.0
2018-Apr-22 07:59N 34°31' E 135°23'0 0.0
2018-Apr-22 07:29N 34°31' E 135°23'0 0.0
2018-Apr-22 06:58N 34°31' E 135°23'0 0.0
2018-Apr-22 06:28N 34°31' E 135°23'0 0.0
2018-Apr-22 05:59N 34°31' E 135°23'0 0.0
2018-Apr-22 05:28N 34°31' E 135°23'0 0.0
2018-Apr-22 04:58N 34°31' E 135°23'0 0.0
2018-Apr-22 04:28N 34°31' E 135°23'0 0.0
2018-Apr-22 03:58N 34°31' E 135°23'0 0.0
2018-Apr-22 03:28N 34°31' E 135°23'0 0.0
2018-Apr-22 02:58N 34°31' E 135°23'0 0.0
2018-Apr-22 02:28N 34°31' E 135°23'0 0.0
2018-Apr-22 01:58N 34°31' E 135°23'0 0.0
2018-Apr-22 01:28N 34°31' E 135°23'0 0.0
2018-Apr-22 00:58N 34°31' E 135°23'0 1.0
2018-Apr-22 00:30N 34°31' E 135°23'2 3.8
2018-Apr-22 00:01N 34°32' E 135°21'1 1.2
2018-Apr-21 23:29N 34°32' E 135°21'0 0.0
2018-Apr-21 22:59N 34°32' E 135°21'0 0.0
2018-Apr-21 22:29N 34°32' E 135°21'0 0.0
2018-Apr-21 21:59N 34°32' E 135°21'0 0.0
2018-Apr-21 21:29N 34°32' E 135°21'0 0.0
2018-Apr-21 20:59N 34°32' E 135°21'0 0.0
2018-Apr-21 20:29N 34°32' E 135°21'0 0.1
2018-Apr-21 19:59N 34°32' E 135°21'0 0.1
2018-Apr-21 19:29N 34°32' E 135°21'0 0.1
2018-Apr-21 18:59N 34°32' E 135°21'0 0.0
2018-Apr-21 18:29N 34°32' E 135°21'0 0.0
2018-Apr-21 17:59N 34°32' E 135°21'0 0.1
2018-Apr-21 17:29N 34°32' E 135°21'0 0.0
2018-Apr-21 16:59N 34°32' E 135°21'0 0.0
2018-Apr-21 16:29N 34°32' E 135°21'0 0.0
2018-Apr-21 15:59N 34°32' E 135°21'0 0.0
2018-Apr-21 15:29N 34°32' E 135°21'0 0.1
2018-Apr-21 14:59N 34°32' E 135°21'0 0.0
2018-Apr-21 14:29N 34°32' E 135°21'0 0.0
2018-Apr-21 13:59N 34°32' E 135°21'0 0.0
2018-Apr-21 13:29N 34°32' E 135°21'0 0.1
2018-Apr-21 12:59N 34°32' E 135°21'0 0.0
2018-Apr-21 12:29N 34°32' E 135°21'0 0.0
2018-Apr-21 11:59N 34°32' E 135°21'0 0.0
2018-Apr-21 11:29N 34°32' E 135°21'0 0.0
2018-Apr-21 10:59N 34°32' E 135°21'0 0.1
2018-Apr-21 10:29N 34°32' E 135°21'0 0.0
2018-Apr-21 09:59N 34°32' E 135°21'0 0.0
2018-Apr-21 09:29N 34°32' E 135°21'0 0.0
2018-Apr-21 08:59N 34°32' E 135°21'0 0.0
2018-Apr-21 08:29N 34°32' E 135°21'0 0.0
2018-Apr-21 07:59N 34°32' E 135°21'0 0.0
2018-Apr-21 07:29N 34°32' E 135°21'0 0.0
2018-Apr-21 06:59N 34°32' E 135°21'0 0.0
2018-Apr-21 06:29N 34°32' E 135°21'0 0.0
2018-Apr-21 05:59N 34°32' E 135°21'0 0.0
2018-Apr-21 05:29N 34°32' E 135°21'0 0.0
2018-Apr-21 04:59N 34°32' E 135°21'0 0.1
2018-Apr-21 04:29N 34°32' E 135°21'0 0.0
2018-Apr-21 03:59N 34°32' E 135°21'0 0.0
2018-Apr-21 03:29N 34°32' E 135°21'0 0.0
2018-Apr-21 02:59N 34°32' E 135°21'0 0.0
2018-Apr-21 02:29N 34°32' E 135°21'0 0.0
2018-Apr-21 01:59N 34°32' E 135°21'0 0.0
2018-Apr-21 01:29N 34°32' E 135°21'0 0.0
2018-Apr-21 00:59N 34°32' E 135°21'0 0.0
2018-Apr-21 00:29N 34°32' E 135°21'0 0.0
2018-Apr-20 23:59N 34°32' E 135°21'0 0.0
2018-Apr-20 23:29N 34°32' E 135°21'0 0.1
2018-Apr-20 22:59N 34°32' E 135°21'0 0.0
2018-Apr-20 22:29N 34°32' E 135°21'0 0.0
2018-Apr-20 21:59N 34°32' E 135°21'0 0.0
2018-Apr-20 21:29N 34°32' E 135°21'0 0.0
2018-Apr-20 20:59N 34°32' E 135°21'0 0.1
2018-Apr-20 20:29N 34°32' E 135°21'0 0.0
2018-Apr-20 19:59N 34°32' E 135°21'0 0.0
2018-Apr-20 19:29N 34°32' E 135°21'0 0.1
2018-Apr-20 18:59N 34°32' E 135°21'0 0.1
2018-Apr-20 18:29N 34°32' E 135°21'0 0.1
2018-Apr-20 17:59N 34°32' E 135°21'0 0.0
2018-Apr-20 17:29N 34°32' E 135°21'0 0.0
2018-Apr-20 16:59N 34°32' E 135°21'0 0.0
2018-Apr-20 16:29N 34°32' E 135°21'0 0.0
2018-Apr-20 15:55N 34°32' E 135°21'0 0.1
2018-Apr-20 15:29N 34°32' E 135°21'0 0.0
2018-Apr-20 14:58N 34°32' E 135°21'0 0.0
2018-Apr-20 14:28N 34°32' E 135°21'0 0.0
2018-Apr-20 13:58N 34°32' E 135°21'0 0.0
2018-Apr-20 13:28N 34°32' E 135°21'0 0.0
2018-Apr-20 12:58N 34°32' E 135°21'0 0.0
2018-Apr-20 12:28N 34°32' E 135°21'0 0.0
2018-Apr-20 11:58N 34°32' E 135°21'0 0.1
2018-Apr-20 11:28N 34°32' E 135°21'0 0.0
2018-Apr-20 10:58N 34°32' E 135°21'0 0.0
2018-Apr-20 10:28N 34°32' E 135°21'0 0.0
2018-Apr-20 09:58N 34°32' E 135°21'0 0.0
2018-Apr-20 09:28N 34°32' E 135°21'0 0.0
2018-Apr-20 08:58N 34°32' E 135°21'0 0.0
2018-Apr-20 08:28N 34°32' E 135°21'0 0.0
2018-Apr-20 07:58N 34°32' E 135°21'0 0.0
2018-Apr-20 07:28N 34°32' E 135°21'0 0.0
2018-Apr-20 06:58N 34°32' E 135°21'0 0.1
2018-Apr-20 06:28N 34°32' E 135°21'0 0.0
2018-Apr-20 05:58N 34°32' E 135°21'0 0.1
2018-Apr-20 05:28N 34°32' E 135°21'0 0.1
2018-Apr-20 04:58N 34°32' E 135°21'0 0.0
2018-Apr-20 04:28N 34°32' E 135°21'0 0.0
2018-Apr-20 03:58N 34°32' E 135°21'0 0.0
2018-Apr-20 03:28N 34°32' E 135°21'0 0.0
2018-Apr-20 02:58N 34°32' E 135°21'0 0.0
2018-Apr-20 02:28N 34°32' E 135°21'0 0.0
2018-Apr-20 01:58N 34°32' E 135°21'0 0.0
2018-Apr-20 01:28N 34°32' E 135°21'0 0.0
2018-Apr-20 00:58N 34°32' E 135°21'0 0.0
2018-Apr-20 00:28N 34°32' E 135°21'0 0.0
2018-Apr-19 23:58N 34°32' E 135°21'0 0.0
2018-Apr-19 23:28N 34°32' E 135°21'0 0.1
2018-Apr-19 22:58N 34°32' E 135°21'0 0.0
2018-Apr-19 22:28N 34°32' E 135°21'0 0.0
2018-Apr-19 21:58N 34°32' E 135°21'0 0.0
2018-Apr-19 21:28N 34°32' E 135°21'0 0.0
2018-Apr-19 20:58N 34°32' E 135°21'0 0.0
2018-Apr-19 20:28N 34°32' E 135°21'0 0.0
2018-Apr-19 19:58N 34°32' E 135°21'0 0.1
2018-Apr-19 19:28N 34°32' E 135°21'0 0.0
2018-Apr-19 18:58N 34°32' E 135°21'0 0.0
2018-Apr-19 18:28N 34°32' E 135°21'0 0.0
2018-Apr-19 17:58N 34°32' E 135°21'0 0.0
2018-Apr-19 17:28N 34°32' E 135°21'0 0.0
2018-Apr-19 16:58N 34°32' E 135°21'0 0.0
2018-Apr-19 16:28N 34°32' E 135°21'0 0.0
2018-Apr-19 15:58N 34°32' E 135°21'0 0.1
2018-Apr-19 15:30N 34°32' E 135°21'2 3.1
2018-Apr-19 15:00N 34°32' E 135°19'4 8.4
2018-Apr-19 14:30N 34°33' E 135°14'510.2
2018-Apr-19 14:00N 34°34' E 135°08'5 9.4
2018-Apr-19 13:30N 34°36' E 135°03'3 5.7
2018-Apr-19 13:00N 34°37' E 134°60'4 7.7
2018-Apr-19 12:30N 34°36' E 134°55'3 6.5
2018-Apr-19 12:00N 34°34' E 134°52'4 8.2
2018-Apr-19 11:30N 34°33' E 134°47'5 9.6
2018-Apr-19 11:00N 34°30' E 134°42'510.4
2018-Apr-19 10:30N 34°28' E 134°36'510.4
2018-Apr-19 10:00N 34°27' E 134°30'510.3
2018-Apr-19 09:30N 34°25' E 134°24'510.1
2018-Apr-19 09:00N 34°24' E 134°18'510.9
2018-Apr-19 08:30N 34°24' E 134°12'7510.3
2018-Apr-19 01:16N 34°01' E 132°46'311.9
2018-Apr-19 01:00N 33°59' E 132°44'612.1
2018-Apr-19 00:29N 33°54' E 132°38'611.8
2018-Apr-18 23:58N 33°50' E 132°33'511.0
2018-Apr-18 23:30N 33°47' E 132°28'811.3
2018-Apr-18 22:46N 33°44' E 132°19'1810.4
2018-Apr-18 21:01N 33°42' E 131°57'210.2
2018-Apr-18 20:47N 33°43' E 131°54'410.8
2018-Apr-18 20:26N 33°44' E 131°50'510.9
2018-Apr-18 19:57N 33°45' E 131°44'511.1
2018-Apr-18 19:30N 33°46' E 131°38'611.3
2018-Apr-18 19:00N 33°48' E 131°31'611.2
2018-Apr-18 18:30N 33°49' E 131°25'611.3
2018-Apr-18 18:00N 33°50' E 131°18'611.2
2018-Apr-18 17:30N 33°51' E 131°11'510.8
2018-Apr-18 17:00N 33°55' E 131°06'510.3
2018-Apr-18 16:30N 33°58' E 131°02'4 7.9
2018-Apr-18 16:00N 33°57' E 130°57'3 6.8
2018-Apr-18 15:30N 33°54' E 130°55'4 7.7
2018-Apr-18 15:00N 33°57' E 130°51'5 9.0
2018-Apr-18 14:30N 34°01' E 130°50'510.3
2018-Apr-18 14:00N 34°02' E 130°43'510.9
2018-Apr-18 13:30N 34°00' E 130°37'510.9
2018-Apr-18 13:00N 33°58' E 130°31'510.6
2018-Apr-18 12:30N 33°56' E 130°25'5 9.8
2018-Apr-18 12:00N 33°52' E 130°21'510.2
2018-Apr-18 11:29N 33°47' E 130°19'510.3
2018-Apr-18 11:00N 33°43' E 130°16'4 8.4
2018-Apr-18 10:30N 33°39' E 130°18'5 9.0
2018-Apr-18 10:00N 33°37' E 130°23'1 2.1
2018-Apr-18 09:28N 33°37' E 130°24'0 0.0
2018-Apr-18 08:58N 33°37' E 130°24'0 0.0
2018-Apr-18 08:28N 33°37' E 130°24'0 0.0
2018-Apr-18 07:58N 33°37' E 130°24'0 0.0
2018-Apr-18 07:28N 33°37' E 130°24'0 0.0
2018-Apr-18 06:58N 33°37' E 130°24'0 0.0
2018-Apr-18 06:28N 33°37' E 130°24'0 0.0
2018-Apr-18 05:58N 33°37' E 130°24'0 0.0
2018-Apr-18 05:28N 33°37' E 130°24'0 0.0
2018-Apr-18 04:58N 33°37' E 130°24'0 0.0
2018-Apr-18 04:28N 33°37' E 130°24'0 0.0
2018-Apr-18 03:58N 33°37' E 130°24'0 0.0
2018-Apr-18 03:28N 33°37' E 130°24'0 0.0
2018-Apr-18 02:58N 33°37' E 130°24'0 0.0
2018-Apr-18 02:30N 33°37' E 130°24'0 0.0
2018-Apr-18 02:00N 33°37' E 130°24'0 0.0
2018-Apr-18 01:30N 33°37' E 130°24'0 0.0
2018-Apr-18 01:00N 33°37' E 130°24'0 0.0
2018-Apr-18 00:30N 33°37' E 130°24'0 0.0
2018-Apr-18 00:00N 33°37' E 130°24'0 0.0
2018-Apr-17 23:30N 33°37' E 130°24'0 0.0
2018-Apr-17 23:00N 33°37' E 130°24'0 0.0
2018-Apr-17 22:30N 33°37' E 130°24'0 1.0
2018-Apr-17 22:00N 33°37' E 130°24'3 5.2
2018-Apr-17 21:31N 33°38' E 130°21'1 2.5
2018-Apr-17 21:00N 33°38' E 130°19'0 0.1
2018-Apr-17 20:30N 33°38' E 130°19'0 0.1
2018-Apr-17 20:00N 33°38' E 130°19'0 0.1
2018-Apr-17 19:30N 33°38' E 130°19'0 0.0
2018-Apr-17 19:00N 33°38' E 130°19'0 0.1
2018-Apr-17 18:30N 33°38' E 130°19'0 0.1
2018-Apr-17 18:00N 33°38' E 130°19'0 0.0
2018-Apr-17 17:30N 33°38' E 130°19'0 0.0
2018-Apr-17 17:00N 33°38' E 130°19'0 0.0
2018-Apr-17 16:30N 33°38' E 130°19'0 0.1
2018-Apr-17 16:00N 33°38' E 130°19'0 0.0
2018-Apr-17 15:30N 33°38' E 130°19'0 0.1
2018-Apr-17 15:00N 33°38' E 130°19'0 0.1
2018-Apr-17 14:30N 33°38' E 130°19'0 0.1
2018-Apr-17 14:00N 33°38' E 130°19'0 0.0
2018-Apr-17 13:30N 33°38' E 130°19'0 0.0
2018-Apr-17 13:00N 33°38' E 130°19'0 0.1
2018-Apr-17 12:30N 33°38' E 130°19'0 0.1
2018-Apr-17 12:00N 33°38' E 130°19'0 0.0
2018-Apr-17 11:30N 33°38' E 130°19'0 0.1
2018-Apr-17 11:00N 33°38' E 130°19'0 0.1
2018-Apr-17 10:30N 33°38' E 130°19'0 0.0
2018-Apr-17 10:00N 33°38' E 130°19'0 0.0
2018-Apr-17 09:29N 33°38' E 130°19'0 0.0
2018-Apr-17 08:59N 33°38' E 130°19'0 0.1
2018-Apr-17 08:29N 33°38' E 130°19'1 1.1
2018-Apr-17 08:00N 33°39' E 130°19'2 4.2
2018-Apr-17 07:31N 33°40' E 130°17'3 6.9
2018-Apr-17 07:01N 33°43' E 130°14'4 7.5
2018-Apr-17 06:30N 33°46' E 130°12'4 7.6
2018-Apr-17 06:01N 33°48' E 130°08'5 9.8
2018-Apr-17 05:30N 33°45' E 130°03'510.8
2018-Apr-17 05:00N 33°42' E 129°57'  
Track history (hours):
 
Tides and Currents Weather Stations Pressure Air Temp Water Temp Dewpoint Dewpoint Depression Visibility Wind Speed Wind Dir Waves Ship Positions

Kookyang Express

Last reported at 2018-Apr-24 02:08 UTC. Time now 2018-Apr-24 05:08 UTC.
Position N 34°04' E 136°47'.

Length 111 m; draft 6.9 m.

Type: Cargo ship. MMSI: 440090000.

Date/timePositionNaut miles runAvg speedWind from/ knotsBaromVisibWave heightAir tempDewpointWater temp
2018-Apr-24 02:08N 34°04' E 136°47'210.7
2018-Apr-24 01:59N 34°03' E 136°46'2310.5
2018-Apr-23 23:49N 33°47' E 136°27'54 9.2
2018-Apr-23 17:58N 33°30' E 135°25'811.1
2018-Apr-23 17:18N 33°35' E 135°19'610.8
2018-Apr-23 16:42N 33°40' E 135°14'410.7
2018-Apr-23 16:16N 33°43' E 135°10'310.6
2018-Apr-23 16:00N 33°45' E 135°08'510.5
2018-Apr-23 15:30N 33°49' E 135°03'5 9.8
2018-Apr-23 15:00N 33°53' E 134°60'5 9.8
2018-Apr-23 14:30N 33°58' E 134°59'5 9.9
2018-Apr-23 14:00N 34°03' E 134°59'510.3
2018-Apr-23 13:30N 34°08' E 134°58'611.6
2018-Apr-23 13:00N 34°14' E 134°58'611.4
2018-Apr-23 12:30N 34°20' E 134°59'510.3
2018-Apr-23 12:00N 34°24' E 135°03'611.1
2018-Apr-23 11:30N 34°26' E 135°08'5 9.9
2018-Apr-23 11:00N 34°29' E 135°14'5 9.8
2018-Apr-23 10:30N 34°32' E 135°18'4 7.5
2018-Apr-23 10:01N 34°32' E 135°23'1 2.5
2018-Apr-23 09:29N 34°31' E 135°23'0 0.0
2018-Apr-23 08:59N 34°31' E 135°23'0 0.0
2018-Apr-23 08:29N 34°31' E 135°23'0 0.0
2018-Apr-23 07:59N 34°31' E 135°23'0 0.0
2018-Apr-23 07:29N 34°31' E 135°23'0 0.0
2018-Apr-23 06:59N 34°31' E 135°23'0 0.0
2018-Apr-23 06:29N 34°31' E 135°23'0 0.0
2018-Apr-23 05:59N 34°31' E 135°23'0 0.0
2018-Apr-23 05:29N 34°31' E 135°23'0 0.0
2018-Apr-23 04:59N 34°31' E 135°23'0 0.0
2018-Apr-23 04:29N 34°31' E 135°23'0 0.0
2018-Apr-23 03:56N 34°31' E 135°23'0 0.0
2018-Apr-23 03:29N 34°31' E 135°23'0 0.0
2018-Apr-23 02:59N 34°31' E 135°23'0 0.0
2018-Apr-23 02:29N 34°31' E 135°23'0 0.0
2018-Apr-23 01:59N 34°31' E 135°23'0 0.0
2018-Apr-23 01:29N 34°31' E 135°23'0 0.0
2018-Apr-23 00:59N 34°31' E 135°23'0 0.0
2018-Apr-23 00:29N 34°31' E 135°23'0 0.0
2018-Apr-22 23:59N 34°31' E 135°23'0 0.0
2018-Apr-22 23:29N 34°31' E 135°23'0 0.0
2018-Apr-22 22:59N 34°31' E 135°23'0 0.0
2018-Apr-22 22:29N 34°31' E 135°23'0 0.0
2018-Apr-22 21:59N 34°31' E 135°23'0 0.0
2018-Apr-22 21:29N 34°31' E 135°23'0 0.0
2018-Apr-22 20:59N 34°31' E 135°23'0 0.0
2018-Apr-22 20:29N 34°31' E 135°23'0 0.0
2018-Apr-22 19:59N 34°31' E 135°23'0 0.0
2018-Apr-22 19:29N 34°31' E 135°23'0 0.0
2018-Apr-22 18:59N 34°31' E 135°23'0 0.0
2018-Apr-22 18:29N 34°31' E 135°23'0 0.0
2018-Apr-22 17:59N 34°31' E 135°23'0 0.0
2018-Apr-22 17:29N 34°31' E 135°23'0 0.0
2018-Apr-22 16:59N 34°31' E 135°23'0 0.0
2018-Apr-22 16:29N 34°31' E 135°23'0 0.0
2018-Apr-22 15:59N 34°31' E 135°23'0 0.0
2018-Apr-22 15:29N 34°31' E 135°23'0 0.0
2018-Apr-22 14:59N 34°31' E 135°23'0 0.0
2018-Apr-22 14:29N 34°31' E 135°23'0 0.0
2018-Apr-22 13:59N 34°31' E 135°23'0 0.0
2018-Apr-22 13:29N 34°31' E 135°23'0 0.0
2018-Apr-22 12:59N 34°31' E 135°23'0 0.0
2018-Apr-22 12:29N 34°31' E 135°23'0 0.0
2018-Apr-22 11:59N 34°31' E 135°23'0 0.0
2018-Apr-22 11:29N 34°31' E 135°23'0 0.0
2018-Apr-22 10:59N 34°31' E 135°23'0 0.0
2018-Apr-22 10:29N 34°31' E 135°23'0 0.0
2018-Apr-22 09:59N 34°31' E 135°23'0 0.0
2018-Apr-22 09:29N 34°31' E 135°23'0 0.0
2018-Apr-22 08:59N 34°31' E 135°23'0 0.0
2018-Apr-22 08:29N 34°31' E 135°23'0 0.0
2018-Apr-22 07:59N 34°31' E 135°23'0 0.0
2018-Apr-22 07:29N 34°31' E 135°23'0 0.0
2018-Apr-22 06:58N 34°31' E 135°23'0 0.0
2018-Apr-22 06:28N 34°31' E 135°23'0 0.0
2018-Apr-22 05:59N 34°31' E 135°23'0 0.0
2018-Apr-22 05:28N 34°31' E 135°23'0 0.0
2018-Apr-22 04:58N 34°31' E 135°23'0 0.0
2018-Apr-22 04:28N 34°31' E 135°23'0 0.0
2018-Apr-22 03:58N 34°31' E 135°23'0 0.0
2018-Apr-22 03:28N 34°31' E 135°23'0 0.0
2018-Apr-22 02:58N 34°31' E 135°23'0 0.0
2018-Apr-22 02:28N 34°31' E 135°23'0 0.0
2018-Apr-22 01:58N 34°31' E 135°23'0 0.0
2018-Apr-22 01:28N 34°31' E 135°23'0 0.0
2018-Apr-22 00:58N 34°31' E 135°23'0 1.0
2018-Apr-22 00:30N 34°31' E 135°23'2 3.8
2018-Apr-22 00:01N 34°32' E 135°21'1 1.2
2018-Apr-21 23:29N 34°32' E 135°21'0 0.0
2018-Apr-21 22:59N 34°32' E 135°21'0 0.0
2018-Apr-21 22:29N 34°32' E 135°21'0 0.0
2018-Apr-21 21:59N 34°32' E 135°21'0 0.0
2018-Apr-21 21:29N 34°32' E 135°21'0 0.0
2018-Apr-21 20:59N 34°32' E 135°21'0 0.0
2018-Apr-21 20:29N 34°32' E 135°21'0 0.1
2018-Apr-21 19:59N 34°32' E 135°21'0 0.1
2018-Apr-21 19:29N 34°32' E 135°21'0 0.1
2018-Apr-21 18:59N 34°32' E 135°21'0 0.0
2018-Apr-21 18:29N 34°32' E 135°21'0 0.0
2018-Apr-21 17:59N 34°32' E 135°21'0 0.1
2018-Apr-21 17:29N 34°32' E 135°21'0 0.0
2018-Apr-21 16:59N 34°32' E 135°21'0 0.0
2018-Apr-21 16:29N 34°32' E 135°21'0 0.0
2018-Apr-21 15:59N 34°32' E 135°21'0 0.0
2018-Apr-21 15:29N 34°32' E 135°21'0 0.1
2018-Apr-21 14:59N 34°32' E 135°21'0 0.0
2018-Apr-21 14:29N 34°32' E 135°21'0 0.0
2018-Apr-21 13:59N 34°32' E 135°21'0 0.0
2018-Apr-21 13:29N 34°32' E 135°21'0 0.1
2018-Apr-21 12:59N 34°32' E 135°21'0 0.0
2018-Apr-21 12:29N 34°32' E 135°21'0 0.0
2018-Apr-21 11:59N 34°32' E 135°21'0 0.0
2018-Apr-21 11:29N 34°32' E 135°21'0 0.0
2018-Apr-21 10:59N 34°32' E 135°21'0 0.1
2018-Apr-21 10:29N 34°32' E 135°21'0 0.0
2018-Apr-21 09:59N 34°32' E 135°21'0 0.0
2018-Apr-21 09:29N 34°32' E 135°21'0 0.0
2018-Apr-21 08:59N 34°32' E 135°21'0 0.0
2018-Apr-21 08:29N 34°32' E 135°21'0 0.0
2018-Apr-21 07:59N 34°32' E 135°21'0 0.0
2018-Apr-21 07:29N 34°32' E 135°21'0 0.0
2018-Apr-21 06:59N 34°32' E 135°21'0 0.0
2018-Apr-21 06:29N 34°32' E 135°21'0 0.0
2018-Apr-21 05:59N 34°32' E 135°21'0 0.0
2018-Apr-21 05:29N 34°32' E 135°21'0 0.0
2018-Apr-21 04:59N 34°32' E 135°21'0 0.1
2018-Apr-21 04:29N 34°32' E 135°21'0 0.0
2018-Apr-21 03:59N 34°32' E 135°21'0 0.0
2018-Apr-21 03:29N 34°32' E 135°21'0 0.0
2018-Apr-21 02:59N 34°32' E 135°21'0 0.0
2018-Apr-21 02:29N 34°32' E 135°21'0 0.0
2018-Apr-21 01:59N 34°32' E 135°21'0 0.0
2018-Apr-21 01:29N 34°32' E 135°21'0 0.0
2018-Apr-21 00:59N 34°32' E 135°21'0 0.0
2018-Apr-21 00:29N 34°32' E 135°21'0 0.0
2018-Apr-20 23:59N 34°32' E 135°21'0 0.0
2018-Apr-20 23:29N 34°32' E 135°21'0 0.1
2018-Apr-20 22:59N 34°32' E 135°21'0 0.0
2018-Apr-20 22:29N 34°32' E 135°21'0 0.0
2018-Apr-20 21:59N 34°32' E 135°21'0 0.0
2018-Apr-20 21:29N 34°32' E 135°21'0 0.0
2018-Apr-20 20:59N 34°32' E 135°21'0 0.1
2018-Apr-20 20:29N 34°32' E 135°21'0 0.0
2018-Apr-20 19:59N 34°32' E 135°21'0 0.0
2018-Apr-20 19:29N 34°32' E 135°21'0 0.1
2018-Apr-20 18:59N 34°32' E 135°21'0 0.1
2018-Apr-20 18:29N 34°32' E 135°21'0 0.1
2018-Apr-20 17:59N 34°32' E 135°21'0 0.0
2018-Apr-20 17:29N 34°32' E 135°21'0 0.0
2018-Apr-20 16:59N 34°32' E 135°21'0 0.0
2018-Apr-20 16:29N 34°32' E 135°21'0 0.0
2018-Apr-20 15:55N 34°32' E 135°21'0 0.1
2018-Apr-20 15:29N 34°32' E 135°21'0 0.0
2018-Apr-20 14:58N 34°32' E 135°21'0 0.0
2018-Apr-20 14:28N 34°32' E 135°21'0 0.0
2018-Apr-20 13:58N 34°32' E 135°21'0 0.0
2018-Apr-20 13:28N 34°32' E 135°21'0 0.0
2018-Apr-20 12:58N 34°32' E 135°21'0 0.0
2018-Apr-20 12:28N 34°32' E 135°21'0 0.0
2018-Apr-20 11:58N 34°32' E 135°21'0 0.1
2018-Apr-20 11:28N 34°32' E 135°21'0 0.0
2018-Apr-20 10:58N 34°32' E 135°21'0 0.0
2018-Apr-20 10:28N 34°32' E 135°21'0 0.0
2018-Apr-20 09:58N 34°32' E 135°21'0 0.0
2018-Apr-20 09:28N 34°32' E 135°21'0 0.0
2018-Apr-20 08:58N 34°32' E 135°21'0 0.0
2018-Apr-20 08:28N 34°32' E 135°21'0 0.0
2018-Apr-20 07:58N 34°32' E 135°21'0 0.0
2018-Apr-20 07:28N 34°32' E 135°21'0 0.0
2018-Apr-20 06:58N 34°32' E 135°21'0 0.1
2018-Apr-20 06:28N 34°32' E 135°21'0 0.0
2018-Apr-20 05:58N 34°32' E 135°21'0 0.1
2018-Apr-20 05:28N 34°32' E 135°21'0 0.1
2018-Apr-20 04:58N 34°32' E 135°21'0 0.0
2018-Apr-20 04:28N 34°32' E 135°21'0 0.0
2018-Apr-20 03:58N 34°32' E 135°21'0 0.0
2018-Apr-20 03:28N 34°32' E 135°21'0 0.0
2018-Apr-20 02:58N 34°32' E 135°21'0 0.0
2018-Apr-20 02:28N 34°32' E 135°21'0 0.0
2018-Apr-20 01:58N 34°32' E 135°21'0 0.0
2018-Apr-20 01:28N 34°32' E 135°21'0 0.0
2018-Apr-20 00:58N 34°32' E 135°21'0 0.0
2018-Apr-20 00:28N 34°32' E 135°21'0 0.0
2018-Apr-19 23:58N 34°32' E 135°21'0 0.0
2018-Apr-19 23:28N 34°32' E 135°21'0 0.1
2018-Apr-19 22:58N 34°32' E 135°21'0 0.0
2018-Apr-19 22:28N 34°32' E 135°21'0 0.0
2018-Apr-19 21:58N 34°32' E 135°21'0 0.0
2018-Apr-19 21:28N 34°32' E 135°21'0 0.0
2018-Apr-19 20:58N 34°32' E 135°21'0 0.0
2018-Apr-19 20:28N 34°32' E 135°21'0 0.0
2018-Apr-19 19:58N 34°32' E 135°21'0 0.1
2018-Apr-19 19:28N 34°32' E 135°21'0 0.0
2018-Apr-19 18:58N 34°32' E 135°21'0 0.0
2018-Apr-19 18:28N 34°32' E 135°21'0 0.0
2018-Apr-19 17:58N 34°32' E 135°21'0 0.0
2018-Apr-19 17:28N 34°32' E 135°21'0 0.0
2018-Apr-19 16:58N 34°32' E 135°21'0 0.0
2018-Apr-19 16:28N 34°32' E 135°21'0 0.0
2018-Apr-19 15:58N 34°32' E 135°21'0 0.1
2018-Apr-19 15:30N 34°32' E 135°21'2 3.1
2018-Apr-19 15:00N 34°32' E 135°19'4 8.4
2018-Apr-19 14:30N 34°33' E 135°14'510.2
2018-Apr-19 14:00N 34°34' E 135°08'5 9.4
2018-Apr-19 13:30N 34°36' E 135°03'3 5.7
2018-Apr-19 13:00N 34°37' E 134°60'4 7.7
2018-Apr-19 12:30N 34°36' E 134°55'3 6.5
2018-Apr-19 12:00N 34°34' E 134°52'4 8.2
2018-Apr-19 11:30N 34°33' E 134°47'5 9.6
2018-Apr-19 11:00N 34°30' E 134°42'510.4
2018-Apr-19 10:30N 34°28' E 134°36'510.4
2018-Apr-19 10:00N 34°27' E 134°30'510.3
2018-Apr-19 09:30N 34°25' E 134°24'510.1
2018-Apr-19 09:00N 34°24' E 134°18'510.9
2018-Apr-19 08:30N 34°24' E 134°12'7510.3
2018-Apr-19 01:16N 34°01' E 132°46'311.9
2018-Apr-19 01:00N 33°59' E 132°44'612.1
2018-Apr-19 00:29N 33°54' E 132°38'611.8
2018-Apr-18 23:58N 33°50' E 132°33'511.0
2018-Apr-18 23:30N 33°47' E 132°28'811.3
2018-Apr-18 22:46N 33°44' E 132°19'1810.4
2018-Apr-18 21:01N 33°42' E 131°57'210.2
2018-Apr-18 20:47N 33°43' E 131°54'410.8
2018-Apr-18 20:26N 33°44' E 131°50'510.9
2018-Apr-18 19:57N 33°45' E 131°44'511.1
2018-Apr-18 19:30N 33°46' E 131°38'611.3
2018-Apr-18 19:00N 33°48' E 131°31'611.2
2018-Apr-18 18:30N 33°49' E 131°25'611.3
2018-Apr-18 18:00N 33°50' E 131°18'611.2
2018-Apr-18 17:30N 33°51' E 131°11'510.8
2018-Apr-18 17:00N 33°55' E 131°06'510.3
2018-Apr-18 16:30N 33°58' E 131°02'4 7.9
2018-Apr-18 16:00N 33°57' E 130°57'3 6.8
2018-Apr-18 15:30N 33°54' E 130°55'4 7.7
2018-Apr-18 15:00N 33°57' E 130°51'5 9.0
2018-Apr-18 14:30N 34°01' E 130°50'510.3
2018-Apr-18 14:00N 34°02' E 130°43'510.9
2018-Apr-18 13:30N 34°00' E 130°37'510.9
2018-Apr-18 13:00N 33°58' E 130°31'510.6
2018-Apr-18 12:30N 33°56' E 130°25'5 9.8
2018-Apr-18 12:00N 33°52' E 130°21'510.2
2018-Apr-18 11:29N 33°47' E 130°19'510.3
2018-Apr-18 11:00N 33°43' E 130°16'4 8.4
2018-Apr-18 10:30N 33°39' E 130°18'5 9.0
2018-Apr-18 10:00N 33°37' E 130°23'1 2.1
2018-Apr-18 09:28N 33°37' E 130°24'0 0.0
2018-Apr-18 08:58N 33°37' E 130°24'0 0.0
2018-Apr-18 08:28N 33°37' E 130°24'0 0.0
2018-Apr-18 07:58N 33°37' E 130°24'0 0.0
2018-Apr-18 07:28N 33°37' E 130°24'0 0.0
2018-Apr-18 06:58N 33°37' E 130°24'0 0.0
2018-Apr-18 06:28N 33°37' E 130°24'0 0.0
2018-Apr-18 05:58N 33°37' E 130°24'0 0.0
2018-Apr-18 05:28N 33°37' E 130°24'0 0.0
2018-Apr-18 04:58N 33°37' E 130°24'0 0.0
2018-Apr-18 04:28N 33°37' E 130°24'0 0.0
2018-Apr-18 03:58N 33°37' E 130°24'0 0.0
2018-Apr-18 03:28N 33°37' E 130°24'0 0.0
2018-Apr-18 02:58N 33°37' E 130°24'0 0.0
2018-Apr-18 02:30N 33°37' E 130°24'0 0.0
2018-Apr-18 02:00N 33°37' E 130°24'0 0.0
2018-Apr-18 01:30N 33°37' E 130°24'0 0.0
2018-Apr-18 01:00N 33°37' E 130°24'0 0.0
2018-Apr-18 00:30N 33°37' E 130°24'0 0.0
2018-Apr-18 00:00N 33°37' E 130°24'0 0.0
2018-Apr-17 23:30N 33°37' E 130°24'0 0.0
2018-Apr-17 23:00N 33°37' E 130°24'0 0.0
2018-Apr-17 22:30N 33°37' E 130°24'0 1.0
2018-Apr-17 22:00N 33°37' E 130°24'3 5.2
2018-Apr-17 21:31N 33°38' E 130°21'1 2.5
2018-Apr-17 21:00N 33°38' E 130°19'0 0.1
2018-Apr-17 20:30N 33°38' E 130°19'0 0.1
2018-Apr-17 20:00N 33°38' E 130°19'0 0.1
2018-Apr-17 19:30N 33°38' E 130°19'0 0.0
2018-Apr-17 19:00N 33°38' E 130°19'0 0.1
2018-Apr-17 18:30N 33°38' E 130°19'0 0.1
2018-Apr-17 18:00N 33°38' E 130°19'0 0.0
2018-Apr-17 17:30N 33°38' E 130°19'0 0.0
2018-Apr-17 17:00N 33°38' E 130°19'0 0.0
2018-Apr-17 16:30N 33°38' E 130°19'0 0.1
2018-Apr-17 16:00N 33°38' E 130°19'0 0.0
2018-Apr-17 15:30N 33°38' E 130°19'0 0.1
2018-Apr-17 15:00N 33°38' E 130°19'0 0.1
2018-Apr-17 14:30N 33°38' E 130°19'0 0.1
2018-Apr-17 14:00N 33°38' E 130°19'0 0.0
2018-Apr-17 13:30N 33°38' E 130°19'0 0.0
2018-Apr-17 13:00N 33°38' E 130°19'0 0.1
2018-Apr-17 12:30N 33°38' E 130°19'0 0.1
2018-Apr-17 12:00N 33°38' E 130°19'0 0.0
2018-Apr-17 11:30N 33°38' E 130°19'0 0.1
2018-Apr-17 11:00N 33°38' E 130°19'0 0.1
2018-Apr-17 10:30N 33°38' E 130°19'0 0.0
2018-Apr-17 10:00N 33°38' E 130°19'0 0.0
2018-Apr-17 09:29N 33°38' E 130°19'0 0.0
2018-Apr-17 08:59N 33°38' E 130°19'0 0.1
2018-Apr-17 08:29N 33°38' E 130°19'1 1.1
2018-Apr-17 08:00N 33°39' E 130°19'2 4.2
2018-Apr-17 07:31N 33°40' E 130°17'3 6.9
2018-Apr-17 07:01N 33°43' E 130°14'4 7.5
2018-Apr-17 06:30N 33°46' E 130°12'4 7.6
2018-Apr-17 06:01N 33°48' E 130°08'5 9.8
2018-Apr-17 05:30N 33°45' E 130°03'510.8
2018-Apr-17 05:00N 33°42' E 129°57'  

Dump ship's entire track history